Time;durP1;ratioP1;P1;durP2;ratioP2;P2;SDS_P1;SDS_P2;PMS_P1;PMS_P2;Temp;Humidity;BMP_temperature;BMP_pressure;BME280_temperature;BME280_humidity;BME280_pressure;Samples;Min_cycle;Max_cycle;Signal;HPM_P1;HPM_P2
2021/11/16 00:00:37;;;;;;;;;;;24.90;66.60;;;;;;6303783;22;20230;-64
2021/11/16 00:03:03;;;;;;;;;;;24.90;67.00;;;;;;6302578;22;19906;-63
2021/11/16 00:05:29;;;;;;;;;;;24.90;67.30;;;;;;6304036;22;19919;-63
2021/11/16 00:07:57;;;;;;;;;;;24.80;67.30;;;;;;6302905;22;19899;-67
2021/11/16 00:10:24;;;;;;;;;;;24.80;67.40;;;;;;6304013;22;19907;-63
2021/11/16 00:12:50;;;;;;;;;;;24.80;67.40;;;;;;6303225;22;20389;-67
2021/11/16 00:15:17;;;;;;;;;;;24.80;67.40;;;;;;6303736;22;20345;-67
2021/11/16 00:17:43;;;;;;;;;;;24.80;67.40;;;;;;6303795;22;19922;-63
2021/11/16 00:20:11;;;;;;;;;;;24.70;67.30;;;;;;6302632;22;19903;-70
2021/11/16 00:22:39;;;;;;;;;;;24.70;67.40;;;;;;6303918;22;19899;-63
2021/11/16 00:27:33;;;;;;;;;;;24.70;67.30;;;;;;6304138;22;19926;-66
2021/11/16 00:29:59;;;;;;;;;;;24.70;67.30;;;;;;6303030;22;20245;-66
2021/11/16 00:32:25;;;;;;;;;;;24.70;67.20;;;;;;6303662;22;20229;-67
2021/11/16 00:34:52;;;;;;;;;;;24.70;67.20;;;;;;6303443;22;19902;-63
2021/11/16 00:37:25;;;;;;;;;;;24.70;67.20;;;;;;6302360;22;19895;-63
2021/11/16 00:39:53;;;;;;;;;;;24.70;67.30;;;;;;6303985;22;20382;-62
2021/11/16 00:42:19;;;;;;;;;;;24.70;67.30;;;;;;6302060;22;19909;-63
2021/11/16 00:44:45;;;;;;;;;;;24.70;67.30;;;;;;6303593;22;19921;-64
2021/11/16 00:47:11;;;;;;;;;;;24.70;67.30;;;;;;6302848;22;19906;-66
2021/11/16 00:49:37;;;;;;;;;;;24.70;67.90;;;;;;6303715;22;19907;-63
2021/11/16 00:52:03;;;;;;;;;;;24.60;67.20;;;;;;6303841;22;19977;-63
2021/11/16 00:54:29;;;;;;;;;;;24.60;67.10;;;;;;6302578;22;20341;-64
2021/11/16 00:56:55;;;;;;;;;;;24.60;67.20;;;;;;6303516;22;19899;-63
2021/11/16 00:59:21;;;;;;;;;;;24.70;67.20;;;;;;6302289;22;19899;-63
2021/11/16 01:01:48;;;;;;;;;;;24.60;67.20;;;;;;6303640;22;19898;-68
2021/11/16 01:04:17;;;;;;;;;;;24.60;67.20;;;;;;6301928;22;19922;-63
2021/11/16 01:06:44;;;;;;;;;;;24.60;67.20;;;;;;6303013;22;19903;-63
2021/11/16 01:09:11;;;;;;;;;;;24.60;67.30;;;;;;6302727;22;19907;-68
2021/11/16 01:11:37;;;;;;;;;;;24.60;67.30;;;;;;6302468;22;20537;-63
2021/11/16 01:14:04;;;;;;;;;;;24.50;67.30;;;;;;6303736;22;19903;-63
2021/11/16 01:16:30;;;;;;;;;;;24.50;67.40;;;;;;6302227;22;19899;-67
2021/11/16 01:18:56;;;;;;;;;;;24.50;67.40;;;;;;6303582;22;19910;-63
2021/11/16 01:21:22;;;;;;;;;;;24.40;67.40;;;;;;6302305;22;19956;-63
2021/11/16 01:23:48;;;;;;;;;;;24.40;67.50;;;;;;6303359;22;20455;-63
2021/11/16 01:26:15;;;;;;;;;;;24.40;67.50;;;;;;6302477;22;20306;-68
2021/11/16 01:28:41;;;;;;;;;;;24.40;67.70;;;;;;6303078;22;19911;-63
2021/11/16 01:31:07;;;;;;;;;;;24.40;67.80;;;;;;6303328;22;19974;-69
2021/11/16 01:33:41;;;;;;;;;;;24.30;67.80;;;;;;6302198;22;19899;-63
2021/11/16 01:36:08;;;;;;;;;;;24.40;68.00;;;;;;6303408;22;20322;-65
2021/11/16 01:38:35;;;;;;;;;;;24.30;68.00;;;;;;6301736;22;19903;-64
2021/11/16 01:41:01;;;;;;;;;;;24.30;68.10;;;;;;6303182;22;19899;-63
2021/11/16 01:43:27;;;;;;;;;;;24.30;68.10;;;;;;6302255;22;19899;-66
2021/11/16 01:45:53;;;;;;;;;;;24.30;68.20;;;;;;6302170;22;20365;-65
2021/11/16 01:48:19;;;;;;;;;;;24.30;68.20;;;;;;6303491;22;19903;-66
2021/11/16 01:50:45;;;;;;;;;;;24.30;68.30;;;;;;6302009;22;19942;-63
2021/11/16 01:53:12;;;;;;;;;;;24.20;68.30;;;;;;6302937;22;20243;-63
2021/11/16 01:55:38;;;;;;;;;;;24.20;68.40;;;;;;6301236;22;19903;-63
2021/11/16 01:58:05;;;;;;;;;;;24.20;68.40;;;;;;6302887;22;19903;-63
2021/11/16 02:00:32;;;;;;;;;;;24.20;68.50;;;;;;6301805;22;19945;-68
2021/11/16 02:02:59;;;;;;;;;;;24.20;68.50;;;;;;6302730;22;19907;-64
2021/11/16 02:05:36;;;;;;;;;;;24.20;68.50;;;;;;6294313;22;19923;-68
2021/11/16 02:08:02;;;;;;;;;;;24.20;68.60;;;;;;6299019;22;19899;-64
2021/11/16 02:10:28;;;;;;;;;;;24.20;68.60;;;;;;6302681;22;19998;-63
2021/11/16 02:12:54;;;;;;;;;;;24.20;68.70;;;;;;6299748;22;19903;-63
2021/11/16 02:15:20;;;;;;;;;;;24.20;68.70;;;;;;6302251;22;19974;-64
2021/11/16 02:17:48;;;;;;;;;;;24.20;68.70;;;;;;6301413;22;19903;-68
2021/11/16 02:20:16;;;;;;;;;;;24.20;68.70;;;;;;6302349;22;19902;-63
2021/11/16 02:22:42;;;;;;;;;;;24.20;68.80;;;;;;6300458;22;19899;-64
2021/11/16 02:25:09;;;;;;;;;;;24.20;68.80;;;;;;6301625;22;19962;-64
2021/11/16 02:27:35;;;;;;;;;;;24.20;68.80;;;;;;6302232;22;19906;-65
2021/11/16 02:30:01;;;;;;;;;;;24.10;68.80;;;;;;6300542;22;19911;-68
2021/11/16 02:32:27;;;;;;;;;;;24.10;68.80;;;;;;6301082;22;19985;-63
2021/11/16 02:34:54;;;;;;;;;;;24.10;68.90;;;;;;6300812;22;20713;-63
2021/11/16 02:37:20;;;;;;;;;;;24.10;68.80;;;;;;6300611;22;19903;-63
2021/11/16 02:39:46;;;;;;;;;;;24.10;68.90;;;;;;6301179;22;20230;-65
2021/11/16 02:42:12;;;;;;;;;;;24.10;68.80;;;;;;6301224;22;19975;-63
2021/11/16 02:44:41;;;;;;;;;;;24.10;68.70;;;;;;6302923;22;20377;-63
2021/11/16 02:47:07;;;;;;;;;;;24.10;68.60;;;;;;6301485;22;20310;-67
2021/11/16 02:49:34;;;;;;;;;;;24.00;68.50;;;;;;6302019;22;20298;-64
2021/11/16 02:52:01;;;;;;;;;;;24.00;68.40;;;;;;6301513;22;20164;-66
2021/11/16 02:54:27;;;;;;;;;;;24.00;68.40;;;;;;6302826;22;20313;-63
2021/11/16 02:56:53;;;;;;;;;;;24.00;69.00;;;;;;6301397;22;19906;-63
2021/11/16 02:59:19;;;;;;;;;;;24.00;68.30;;;;;;6301862;22;19910;-64
2021/11/16 03:01:46;;;;;;;;;;;24.00;68.30;;;;;;6302691;22;19899;-65
2021/11/16 03:04:19;;;;;;;;;;;23.90;68.20;;;;;;6300844;22;19910;-62
2021/11/16 03:06:45;;;;;;;;;;;23.90;68.10;;;;;;6302068;22;19907;-67
2021/11/16 03:09:11;;;;;;;;;;;23.90;68.10;;;;;;6301322;22;19942;-68
2021/11/16 03:11:37;;;;;;;;;;;23.90;68.00;;;;;;6303624;22;19974;-63
2021/11/16 03:14:03;;;;;;;;;;;23.90;68.00;;;;;;6303581;22;19952;-67
2021/11/16 03:16:33;;;;;;;;;;;23.80;67.80;;;;;;6304205;22;19930;-63
2021/11/16 03:19:00;;;;;;;;;;;23.80;67.80;;;;;;6304335;22;19906;-68
2021/11/16 03:21:26;;;;;;;;;;;23.80;67.80;;;;;;6304090;22;19902;-63
2021/11/16 03:23:56;;;;;;;;;;;23.80;67.80;;;;;;6304152;22;19903;-62
2021/11/16 03:26:24;;;;;;;;;;;23.80;67.80;;;;;;6303036;22;20374;-62
2021/11/16 03:28:51;;;;;;;;;;;23.80;67.80;;;;;;6304108;22;19911;-66
2021/11/16 03:31:48;;;;;;;;;;;23.70;67.70;;;;;;6303444;22;19985;-63
2021/11/16 03:34:05;;;;;;;;;;;23.70;67.60;;;;;;6302982;22;19947;-64
2021/11/16 03:36:32;;;;;;;;;;;23.70;67.60;;;;;;6304191;22;19907;-63
2021/11/16 03:38:58;;;;;;;;;;;23.70;67.50;;;;;;6303106;22;19899;-67
2021/11/16 03:41:24;;;;;;;;;;;23.70;67.50;;;;;;6304187;22;19975;-66
2021/11/16 03:43:54;;;;;;;;;;;23.70;67.50;;;;;;6302940;22;19902;-63
2021/11/16 03:46:20;;;;;;;;;;;23.60;67.40;;;;;;6303963;22;19906;-61
2021/11/16 03:48:47;;;;;;;;;;;23.70;67.40;;;;;;6303611;22;19906;-62
2021/11/16 03:51:13;;;;;;;;;;;23.60;67.30;;;;;;6303797;22;19978;-64
2021/11/16 03:53:39;;;;;;;;;;;23.60;67.30;;;;;;6304108;22;19906;-64
2021/11/16 03:56:05;;;;;;;;;;;23.60;67.20;;;;;;6303027;22;19906;-68
2021/11/16 03:58:31;;;;;;;;;;;23.60;67.20;;;;;;6303912;22;19969;-66
2021/11/16 04:01:00;;;;;;;;;;;23.60;67.20;;;;;;6302499;22;19899;-66
2021/11/16 04:03:27;;;;;;;;;;;23.60;67.10;;;;;;6303855;22;20303;-63
2021/11/16 04:05:53;;;;;;;;;;;23.60;67.10;;;;;;6302989;22;19918;-67
2021/11/16 04:08:24;;;;;;;;;;;23.50;67.10;;;;;;6303210;22;19910;-69
2021/11/16 04:10:50;;;;;;;;;;;23.50;67.10;;;;;;6304280;22;19911;-68
2021/11/16 04:13:17;;;;;;;;;;;23.50;67.20;;;;;;6303007;22;19898;-64
2021/11/16 04:15:46;;;;;;;;;;;23.50;67.10;;;;;;6304106;22;19899;-66
2021/11/16 04:18:13;;;;;;;;;;;23.50;67.00;;;;;;6274731;22;20331;-64
2021/11/16 04:20:40;;;;;;;;;;;23.50;67.00;;;;;;6303711;22;20310;-66
2021/11/16 04:23:09;;;;;;;;;;;23.50;67.00;;;;;;6302919;22;19906;-68
2021/11/16 04:25:37;;;;;;;;;;;23.50;66.90;;;;;;6301787;22;20032;-73
2021/11/16 04:28:03;;;;;;;;;;;23.60;66.90;;;;;;6303120;22;19903;-64
2021/11/16 04:30:33;;;;;;;;;;;23.50;66.80;;;;;;6301618;22;20302;-72
2021/11/16 04:32:59;;;;;;;;;;;23.50;66.70;;;;;;6302822;22;20306;-62
2021/11/16 04:35:27;;;;;;;;;;;23.50;66.60;;;;;;6302132;22;19926;-70
2021/11/16 04:37:55;;;;;;;;;;;23.50;66.60;;;;;;6303196;22;19902;-63
2021/11/16 04:40:25;;;;;;;;;;;23.60;67.20;;;;;;6302725;22;19944;-63
2021/11/16 04:42:54;;;;;;;;;;;23.60;66.40;;;;;;6303210;22;20226;-65
2021/11/16 04:45:23;;;;;;;;;;;23.60;66.30;;;;;;6302632;22;20162;-66
2021/11/16 04:47:54;;;;;;;;;;;23.60;66.20;;;;;;6300733;22;20302;-64
2021/11/16 04:53:11;;;;;;;;;;;23.60;66.00;;;;;;6301439;22;19899;-64
2021/11/16 05:03:42;;;;;;;;;;;23.60;65.70;;;;;;6302809;22;19906;-64
2021/11/16 05:06:09;;;;;;;;;;;23.60;65.70;;;;;;6301409;22;20314;-69
2021/11/16 05:08:37;;;;;;;;;;;23.60;65.60;;;;;;6299463;22;19934;-64
2021/11/16 05:11:03;;;;;;;;;;;23.60;65.50;;;;;;6300524;22;19927;-66
2021/11/16 05:13:29;;;;;;;;;;;23.60;65.50;;;;;;6300159;22;19903;-65
2021/11/16 05:15:55;;;;;;;;;;;23.60;65.40;;;;;;6299657;22;19899;-68
2021/11/16 05:18:21;;;;;;;;;;;23.60;65.40;;;;;;6298086;22;19907;-66
2021/11/16 05:20:47;;;;;;;;;;;23.70;65.50;;;;;;6300742;22;20276;-68
2021/11/16 05:23:15;;;;;;;;;;;23.70;65.50;;;;;;6300214;22;20325;-68
2021/11/16 05:25:41;;;;;;;;;;;23.70;65.50;;;;;;6300860;22;19933;-63
2021/11/16 05:28:07;;;;;;;;;;;23.70;65.50;;;;;;6301111;22;19903;-63
2021/11/16 05:30:35;;;;;;;;;;;23.70;65.40;;;;;;6299723;22;19910;-64
2021/11/16 05:33:01;;;;;;;;;;;23.70;65.30;;;;;;6302458;22;19899;-64
2021/11/16 05:35:27;;;;;;;;;;;23.80;65.30;;;;;;6301983;22;19899;-63
2021/11/16 05:37:53;;;;;;;;;;;23.80;65.10;;;;;;6303055;22;19938;-64
2021/11/16 05:40:19;;;;;;;;;;;23.80;64.80;;;;;;6302243;22;19910;-64
2021/11/16 05:42:45;;;;;;;;;;;23.80;64.60;;;;;;6303062;22;19899;-63
2021/11/16 05:45:12;;;;;;;;;;;23.90;64.50;;;;;;6302153;22;19907;-64
2021/11/16 05:47:39;;;;;;;;;;;23.90;64.40;;;;;;6302576;22;20678;-64
2021/11/16 05:50:06;;;;;;;;;;;23.90;64.30;;;;;;6302877;22;20272;-63
2021/11/16 05:52:32;;;;;;;;;;;24.00;64.20;;;;;;6301770;22;19974;-63
2021/11/16 05:54:58;;;;;;;;;;;24.00;64.10;;;;;;6303498;22;19926;-63
2021/11/16 05:57:24;;;;;;;;;;;24.10;64.00;;;;;;6301854;22;20307;-63
2021/11/16 05:59:50;;;;;;;;;;;24.10;63.80;;;;;;6303072;22;19902;-63
2021/11/16 06:02:17;;;;;;;;;;;24.10;63.70;;;;;;6302722;22;19978;-63
2021/11/16 06:04:44;;;;;;;;;;;24.20;63.60;;;;;;6302153;22;19917;-63
2021/11/16 06:07:13;;;;;;;;;;;24.20;63.30;;;;;;6302936;22;19903;-63
2021/11/16 06:09:39;;;;;;;;;;;24.20;63.20;;;;;;6302222;22;19917;-64
2021/11/16 06:12:07;;;;;;;;;;;24.20;63.00;;;;;;6302927;22;19964;-64
2021/11/16 06:14:33;;;;;;;;;;;24.20;62.90;;;;;;6301850;22;19928;-63
2021/11/16 06:16:59;;;;;;;;;;;24.20;62.80;;;;;;6302880;22;19934;-63
2021/11/16 06:19:27;;;;;;;;;;;24.30;62.70;;;;;;6301932;22;19967;-71
2021/11/16 06:21:53;;;;;;;;;;;24.30;62.50;;;;;;6302460;22;19981;-64
2021/11/16 06:24:19;;;;;;;;;;;24.40;62.40;;;;;;6302830;22;19902;-63
2021/11/16 06:26:46;;;;;;;;;;;24.40;62.10;;;;;;6301876;22;20269;-63
2021/11/16 06:29:12;;;;;;;;;;;24.40;61.80;;;;;;6302614;22;19938;-63
2021/11/16 06:31:38;;;;;;;;;;;24.40;61.60;;;;;;6301541;22;20461;-63
2021/11/16 06:34:05;;;;;;;;;;;24.50;61.30;;;;;;6303030;22;19903;-63
2021/11/16 06:36:34;;;;;;;;;;;24.50;61.10;;;;;;6301472;22;20321;-63
2021/11/16 06:39:00;;;;;;;;;;;24.50;60.70;;;;;;6302817;22;19961;-63
2021/11/16 06:41:27;;;;;;;;;;;24.50;60.30;;;;;;6301986;22;20306;-65
2021/11/16 06:43:53;;;;;;;;;;;24.60;59.80;;;;;;6301956;22;19899;-63
2021/11/16 06:46:19;;;;;;;;;;;24.60;59.10;;;;;;6302669;22;19910;-64
2021/11/16 06:48:45;;;;;;;;;;;24.60;59.30;;;;;;6301482;22;19905;-63
2021/11/16 06:51:11;;;;;;;;;;;24.60;58.10;;;;;;6302895;22;19902;-63
2021/11/16 06:53:38;;;;;;;;;;;24.60;58.10;;;;;;6301148;22;19903;-63
2021/11/16 06:56:05;;;;;;;;;;;24.60;57.90;;;;;;6302787;22;19899;-63
2021/11/16 06:58:32;;;;;;;;;;;24.70;57.60;;;;;;6301827;22;19906;-63
2021/11/16 07:00:58;;;;;;;;;;;24.60;57.30;;;;;;6301926;22;19899;-64
2021/11/16 07:03:25;;;;;;;;;;;24.70;57.30;;;;;;6303339;22;19902;-64
2021/11/16 07:05:53;;;;;;;;;;;24.70;57.30;;;;;;6300801;22;19993;-63
2021/11/16 07:08:37;;;;;;;;;;;24.70;57.30;;;;;;6302559;22;19903;-64
2021/11/16 07:11:08;;;;;;;;;;;24.70;57.30;;;;;;6301193;22;19921;-64
2021/11/16 07:13:36;;;;;;;;;;;24.70;57.30;;;;;;6302699;22;19931;-69
2021/11/16 07:16:10;;;;;;;;;;;24.70;57.30;;;;;;6301957;22;19907;-65
2021/11/16 07:18:45;;;;;;;;;;;24.70;57.30;;;;;;6301728;22;19909;-66
2021/11/16 07:21:11;;;;;;;;;;;24.70;57.40;;;;;;6303172;22;19903;-66
2021/11/16 07:23:37;;;;;;;;;;;24.70;57.40;;;;;;6302040;22;19899;-64
2021/11/16 07:26:11;;;;;;;;;;;24.80;57.50;;;;;;6302433;22;20061;-65
2021/11/16 07:28:44;;;;;;;;;;;24.90;57.60;;;;;;6301571;22;19899;-65
2021/11/16 07:31:15;;;;;;;;;;;24.90;57.50;;;;;;6301671;22;19903;-64
2021/11/16 07:33:42;;;;;;;;;;;24.90;57.50;;;;;;6302253;22;19906;-65
2021/11/16 07:36:08;;;;;;;;;;;25.00;57.90;;;;;;6301147;22;19994;-64
2021/11/16 07:38:34;;;;;;;;;;;25.00;57.10;;;;;;6302351;22;19899;-65
2021/11/16 07:41:00;;;;;;;;;;;25.10;56.80;;;;;;6301303;22;19956;-64
2021/11/16 07:43:29;;;;;;;;;;;25.10;56.20;;;;;;6302526;22;19899;-65
2021/11/16 07:45:56;;;;;;;;;;;25.20;55.70;;;;;;6301278;22;19906;-65
2021/11/16 07:48:22;;;;;;;;;;;25.20;55.40;;;;;;6301907;22;19902;-66
2021/11/16 07:50:53;;;;;;;;;;;25.30;55.20;;;;;;6302206;22;19942;-64
2021/11/16 07:53:38;;;;;;;;;;;25.30;55.00;;;;;;6301151;22;20316;-67
2021/11/16 07:56:06;;;;;;;;;;;25.30;54.90;;;;;;6302492;22;20309;-66
2021/11/16 07:58:35;;;;;;;;;;;25.40;54.90;;;;;;6303349;22;19898;-65
2021/11/16 08:01:06;;;;;;;;;;;25.40;54.80;;;;;;6304597;22;19898;-64
2021/11/16 08:03:41;;;;;;;;;;;25.40;54.50;;;;;;6303730;22;20294;-64
2021/11/16 08:06:13;;;;;;;;;;;25.40;54.40;;;;;;6302743;22;20341;-66
2021/11/16 08:08:53;;;;;;;;;;;25.40;54.40;;;;;;6304118;22;19902;-65
2021/11/16 08:14:23;;;;;;;;;;;25.50;54.20;;;;;;6235387;22;19927;-64
2021/11/16 08:16:52;;;;;;;;;;;25.40;53.90;;;;;;6303696;22;19903;-64
2021/11/16 08:19:20;;;;;;;;;;;25.50;54.00;;;;;;6302820;22;19898;-64
2021/11/16 08:21:47;;;;;;;;;;;25.50;53.90;;;;;;6304479;22;19906;-64
2021/11/16 08:24:15;;;;;;;;;;;25.50;53.60;;;;;;6303396;22;20238;-65
2021/11/16 08:26:48;;;;;;;;;;;25.50;53.50;;;;;;6304367;22;20040;-65
2021/11/16 08:29:16;;;;;;;;;;;25.60;53.50;;;;;;6303059;22;19922;-65
2021/11/16 08:31:48;;;;;;;;;;;25.60;53.40;;;;;;6276040;22;20215;-64
2021/11/16 08:34:14;;;;;;;;;;;25.60;53.30;;;;;;6304004;22;19982;-65
2021/11/16 08:36:45;;;;;;;;;;;25.70;53.30;;;;;;6302889;22;20274;-65
2021/11/16 08:39:11;;;;;;;;;;;25.70;52.90;;;;;;6304319;22;20296;-65
2021/11/16 08:41:38;;;;;;;;;;;25.80;52.80;;;;;;6302331;22;19952;-66
2021/11/16 08:44:14;;;;;;;;;;;25.80;52.80;;;;;;6303986;22;19906;-65
2021/11/16 08:46:41;;;;;;;;;;;25.80;52.50;;;;;;6303293;22;19906;-65
2021/11/16 08:49:07;;;;;;;;;;;25.80;52.40;;;;;;6303394;22;19910;-64
2021/11/16 08:51:41;;;;;;;;;;;25.90;52.50;;;;;;6304177;22;19953;-66
2021/11/16 08:54:08;;;;;;;;;;;26.00;52.40;;;;;;6302604;22;19906;-67
2021/11/16 08:56:38;;;;;;;;;;;26.00;52.20;;;;;;6303658;22;19992;-65
2021/11/16 08:59:12;;;;;;;;;;;26.10;51.90;;;;;;6302675;22;19914;-65
2021/11/16 09:01:38;;;;;;;;;;;26.10;51.70;;;;;;6303415;22;19948;-65
2021/11/16 09:04:06;;;;;;;;;;;26.20;51.60;;;;;;6303198;22;19909;-65
2021/11/16 09:06:37;;;;;;;;;;;26.20;51.70;;;;;;6302255;22;19946;-65
2021/11/16 09:09:06;;;;;;;;;;;26.10;51.70;;;;;;6302898;22;19914;-65
2021/11/16 09:11:32;;;;;;;;;;;26.20;51.90;;;;;;6302262;22;19902;-64
2021/11/16 09:13:58;;;;;;;;;;;26.20;51.90;;;;;;6303906;22;19899;-65
2021/11/16 09:16:30;;;;;;;;;;;26.20;51.80;;;;;;6302279;22;20524;-65
2021/11/16 09:18:58;;;;;;;;;;;26.20;51.60;;;;;;6303918;22;20165;-69
2021/11/16 09:21:26;;;;;;;;;;;26.30;51.40;;;;;;6303755;22;19911;-65
2021/11/16 09:24:05;;;;;;;;;;;26.30;51.10;;;;;;6275295;22;19978;-65
2021/11/16 09:26:39;;;;;;;;;;;26.40;51.10;;;;;;6303565;22;19902;-64
2021/11/16 09:29:07;;;;;;;;;;;26.40;51.10;;;;;;6302316;22;19911;-64
2021/11/16 09:31:37;;;;;;;;;;;26.50;50.80;;;;;;6303339;22;19909;-65
2021/11/16 09:34:05;;;;;;;;;;;26.50;50.60;;;;;;6303400;22;19970;-64
2021/11/16 09:36:36;;;;;;;;;;;26.60;50.40;;;;;;6302624;22;19929;-67
2021/11/16 09:39:16;;;;;;;;;;;26.70;50.20;;;;;;6303215;22;19941;-65
2021/11/16 09:41:43;;;;;;;;;;;26.70;49.90;;;;;;6301912;22;20630;-64
2021/11/16 09:44:14;;;;;;;;;;;26.70;49.70;;;;;;6303538;22;19899;-64
2021/11/16 09:46:48;;;;;;;;;;;26.80;49.80;;;;;;6302264;22;19902;-64
2021/11/16 09:49:16;;;;;;;;;;;26.90;49.60;;;;;;6303166;22;19953;-65
2021/11/16 09:51:54;;;;;;;;;;;26.90;48.80;;;;;;6302851;22;19990;-65
2021/11/16 09:54:20;;;;;;;;;;;26.90;48.40;;;;;;6301877;22;19899;-64
2021/11/16 09:56:46;;;;;;;;;;;27.00;48.20;;;;;;6302890;22;19903;-65
2021/11/16 09:59:23;;;;;;;;;;;27.00;48.30;;;;;;6302166;22;19903;-64
2021/11/16 10:01:49;;;;;;;;;;;27.00;48.20;;;;;;6302897;22;20270;-64
2021/11/16 10:04:21;;;;;;;;;;;27.10;48.20;;;;;;6302295;22;20329;-65
2021/11/16 10:06:48;;;;;;;;;;;27.20;48.20;;;;;;6302011;22;19932;-65
2021/11/16 10:09:14;;;;;;;;;;;27.20;48.20;;;;;;6302771;22;19910;-64
2021/11/16 10:11:42;;;;;;;;;;;27.20;48.00;;;;;;6301736;22;19910;-66
2021/11/16 10:14:13;;;;;;;;;;;27.20;47.80;;;;;;6303169;22;19899;-64
2021/11/16 10:16:39;;;;;;;;;;;27.30;47.80;;;;;;6301635;22;19969;-64
2021/11/16 10:19:06;;;;;;;;;;;27.30;47.40;;;;;;6302585;22;19898;-64
2021/11/16 10:21:33;;;;;;;;;;;27.40;47.30;;;;;;6302255;22;20271;-65
2021/11/16 10:24:00;;;;;;;;;;;27.40;47.50;;;;;;6302514;22;19902;-65
2021/11/16 10:26:33;;;;;;;;;;;27.50;47.50;;;;;;6302488;22;19898;-64
2021/11/16 10:29:00;;;;;;;;;;;27.50;47.60;;;;;;6301289;22;19907;-66
2021/11/16 10:31:34;;;;;;;;;;;27.60;47.40;;;;;;6302881;22;19906;-69
2021/11/16 10:34:00;;;;;;;;;;;27.60;46.90;;;;;;6301833;22;20039;-65
2021/11/16 10:36:27;;;;;;;;;;;27.70;46.80;;;;;;6302705;22;19921;-65
2021/11/16 10:38:58;;;;;;;;;;;27.70;46.60;;;;;;6302416;22;19937;-64
2021/11/16 10:41:29;;;;;;;;;;;27.80;46.80;;;;;;6301812;22;19903;-66
2021/11/16 10:44:03;;;;;;;;;;;27.80;46.40;;;;;;6303084;22;19899;-64
2021/11/16 10:46:30;;;;;;;;;;;27.90;46.00;;;;;;6301620;22;20201;-64
2021/11/16 10:48:58;;;;;;;;;;;27.90;45.70;;;;;;6302854;22;19902;-65
2021/11/16 10:51:28;;;;;;;;;;;28.00;45.70;;;;;;6301608;22;19899;-65
2021/11/16 10:53:55;;;;;;;;;;;28.00;45.40;;;;;;6302547;22;19910;-65
2021/11/16 10:56:26;;;;;;;;;;;28.10;45.50;;;;;;6302784;22;19899;-66
2021/11/16 10:58:54;;;;;;;;;;;28.10;45.40;;;;;;6301475;22;19944;-63
2021/11/16 11:01:22;;;;;;;;;;;28.10;45.10;;;;;;6302307;22;19899;-65
2021/11/16 11:03:51;;;;;;;;;;;28.20;45.10;;;;;;6301082;22;19982;-66
2021/11/16 11:06:22;;;;;;;;;;;28.20;44.90;;;;;;6302459;22;19910;-64
2021/11/16 11:08:49;;;;;;;;;;;28.20;44.70;;;;;;6301834;22;19944;-65
2021/11/16 11:11:23;;;;;;;;;;;28.30;44.60;;;;;;6302350;22;20225;-66
2021/11/16 11:13:54;;;;;;;;;;;28.30;44.60;;;;;;6302531;22;20044;-64
2021/11/16 11:16:20;;;;;;;;;;;28.40;44.70;;;;;;6301702;22;19922;-65
2021/11/16 11:18:48;;;;;;;;;;;28.40;44.30;;;;;;6302383;22;20653;-65
2021/11/16 11:21:27;;;;;;;;;;;28.50;44.30;;;;;;6301302;22;19899;-68
2021/11/16 11:24:00;;;;;;;;;;;28.50;44.10;;;;;;6302504;22;19944;-66
2021/11/16 11:26:35;;;;;;;;;;;28.60;43.90;;;;;;6302650;22;19899;-64
2021/11/16 11:31:43;;;;;;;;;;;28.60;43.50;;;;;;6303451;22;19903;-64
2021/11/16 11:34:11;;;;;;;;;;;28.60;43.30;;;;;;6303412;22;19934;-64
2021/11/16 11:36:38;;;;;;;;;;;28.70;43.30;;;;;;6304790;22;19982;-67
2021/11/16 11:39:18;;;;;;;;;;;28.70;43.40;;;;;;6303695;22;19906;-65
2021/11/16 11:41:56;;;;;;;;;;;28.70;43.40;;;;;;6303735;22;20333;-65
2021/11/16 11:44:24;;;;;;;;;;;28.70;43.20;;;;;;6304423;22;19949;-66
2021/11/16 11:46:55;;;;;;;;;;;28.80;43.50;;;;;;6303205;22;20319;-64
2021/11/16 11:49:22;;;;;;;;;;;28.80;43.60;;;;;;6304514;22;19926;-64
2021/11/16 11:51:49;;;;;;;;;;;28.80;43.80;;;;;;6303302;22;19903;-66
2021/11/16 11:54:15;;;;;;;;;;;28.90;43.90;;;;;;6304417;22;20212;-65
2021/11/16 11:56:42;;;;;;;;;;;28.90;43.80;;;;;;6303787;22;19968;-70
2021/11/16 11:59:08;;;;;;;;;;;28.90;44.10;;;;;;6303369;22;19903;-65
2021/11/16 12:01:34;;;;;;;;;;;28.90;44.10;;;;;;6304607;22;19957;-64
2021/11/16 12:04:01;;;;;;;;;;;28.80;44.40;;;;;;6303059;22;19951;-70
2021/11/16 12:06:29;;;;;;;;;;;28.80;44.30;;;;;;6304594;22;19902;-69
2021/11/16 12:08:56;;;;;;;;;;;28.80;44.70;;;;;;6302494;22;20222;-69
2021/11/16 12:11:22;;;;;;;;;;;28.80;44.60;;;;;;6303991;22;19899;-68
2021/11/16 12:13:49;;;;;;;;;;;28.80;44.70;;;;;;6302755;22;19909;-70
2021/11/16 12:16:35;;;;;;;;;;;28.90;44.80;;;;;;6302053;22;20333;-67
2021/11/16 12:19:06;;;;;;;;;;;28.80;44.50;;;;;;6281524;22;19922;-65
2021/11/16 12:21:37;;;;;;;;;;;28.90;44.40;;;;;;6301563;22;19983;-65
2021/11/16 12:24:07;;;;;;;;;;;28.90;44.20;;;;;;6302332;22;19989;-65
2021/11/16 12:26:35;;;;;;;;;;;28.90;44.40;;;;;;6302548;22;20219;-69
2021/11/16 12:29:12;;;;;;;;;;;28.90;44.60;;;;;;6274693;22;19898;-65
2021/11/16 12:31:39;;;;;;;;;;;28.90;44.70;;;;;;6303708;22;19906;-65
2021/11/16 12:34:05;;;;;;;;;;;29.00;44.70;;;;;;6301734;22;19941;-65
2021/11/16 12:36:33;;;;;;;;;;;29.00;44.70;;;;;;6302688;22;20002;-65
2021/11/16 12:39:26;;;;;;;;;;;29.00;44.70;;;;;;6302082;22;19991;-64
2021/11/16 12:41:53;;;;;;;;;;;29.10;44.80;;;;;;6296038;22;19906;-66
2021/11/16 12:44:32;;;;;;;;;;;29.10;44.50;;;;;;6301953;22;19899;-66
2021/11/16 12:47:05;;;;;;;;;;;29.20;44.90;;;;;;6301269;22;19899;-66
2021/11/16 12:49:41;;;;;;;;;;;29.10;44.80;;;;;;6303782;22;19907;-64
2021/11/16 12:52:09;;;;;;;;;;;29.10;45.20;;;;;;6302691;22;20256;-64
2021/11/16 12:54:36;;;;;;;;;;;29.10;45.10;;;;;;6303756;22;19899;-65
2021/11/16 12:57:05;;;;;;;;;;;29.20;45.30;;;;;;6303271;22;19902;-65
2021/11/16 12:59:32;;;;;;;;;;;29.10;45.00;;;;;;6303192;22;19899;-65
2021/11/16 13:02:01;;;;;;;;;;;29.10;44.60;;;;;;6303790;22;19899;-64
2021/11/16 13:04:40;;;;;;;;;;;29.10;44.60;;;;;;6302113;22;19917;-65
2021/11/16 13:07:18;;;;;;;;;;;29.10;44.80;;;;;;6303901;22;19906;-66
2021/11/16 13:09:46;;;;;;;;;;;29.10;44.70;;;;;;6302414;22;19998;-64
2021/11/16 13:12:31;;;;;;;;;;;29.10;44.70;;;;;;6303416;22;20329;-65
2021/11/16 13:14:57;;;;;;;;;;;29.10;44.90;;;;;;6303513;22;19899;-64
2021/11/16 13:17:41;;;;;;;;;;;29.10;44.90;;;;;;6302483;22;20217;-64
2021/11/16 13:20:08;;;;;;;;;;;29.00;44.70;;;;;;6303698;22;19906;-65
2021/11/16 13:22:44;;;;;;;;;;;29.10;44.80;;;;;;6302750;22;19899;-64
2021/11/16 13:25:29;;;;;;;;;;;29.00;45.00;;;;;;6303456;22;19927;-65
2021/11/16 13:27:56;;;;;;;;;;;29.00;44.90;;;;;;6303325;22;19903;-65
2021/11/16 13:30:23;;;;;;;;;;;29.10;45.10;;;;;;6302777;22;20207;-65
2021/11/16 13:32:49;;;;;;;;;;;29.00;45.30;;;;;;6303405;22;19905;-68
2021/11/16 13:35:16;;;;;;;;;;;29.00;45.40;;;;;;6302082;22;19906;-64
2021/11/16 13:37:54;;;;;;;;;;;29.00;45.50;;;;;;6303582;22;19899;-64
2021/11/16 13:40:22;;;;;;;;;;;29.00;45.60;;;;;;6303358;22;19909;-65
2021/11/16 13:42:50;;;;;;;;;;;28.90;46.20;;;;;;6302534;22;20316;-64
2021/11/16 13:45:17;;;;;;;;;;;28.90;45.70;;;;;;6303138;22;19906;-65
2021/11/16 13:47:47;;;;;;;;;;;28.90;45.70;;;;;;6302292;22;19899;-66
2021/11/16 13:50:24;;;;;;;;;;;28.80;45.70;;;;;;6303446;22;19994;-66
2021/11/16 13:52:55;;;;;;;;;;;28.80;46.00;;;;;;6302351;22;19903;-65
2021/11/16 13:55:29;;;;;;;;;;;28.90;46.10;;;;;;6302470;22;20281;-65
2021/11/16 13:57:57;;;;;;;;;;;28.80;46.20;;;;;;6303077;22;20563;-63
2021/11/16 14:00:24;;;;;;;;;;;28.80;46.30;;;;;;6301867;22;19899;-65
2021/11/16 14:02:53;;;;;;;;;;;28.80;46.30;;;;;;6302942;22;20272;-67
2021/11/16 14:05:21;;;;;;;;;;;28.80;46.40;;;;;;6301408;22;19939;-66
2021/11/16 14:08:13;;;;;;;;;;;28.70;46.50;;;;;;6303085;22;19952;-63
2021/11/16 14:10:43;;;;;;;;;;;28.70;46.30;;;;;;6296792;22;19906;-63
2021/11/16 14:13:15;;;;;;;;;;;28.80;46.40;;;;;;6302132;22;19903;-63
2021/11/16 14:15:41;;;;;;;;;;;28.70;46.30;;;;;;6303298;22;20047;-63
2021/11/16 14:18:09;;;;;;;;;;;28.80;46.40;;;;;;6301849;22;19909;-64
2021/11/16 14:20:36;;;;;;;;;;;28.70;46.30;;;;;;6303089;22;20238;-64
2021/11/16 14:23:13;;;;;;;;;;;28.70;46.30;;;;;;6301946;22;19937;-64
2021/11/16 14:25:44;;;;;;;;;;;28.60;46.20;;;;;;6302341;22;20265;-65
2021/11/16 14:28:10;;;;;;;;;;;28.70;46.30;;;;;;6302971;22;19903;-67
2021/11/16 14:30:36;;;;;;;;;;;28.70;46.60;;;;;;6301231;22;19911;-67
2021/11/16 14:33:07;;;;;;;;;;;28.60;46.60;;;;;;6275601;22;19944;-66
2021/11/16 14:35:35;;;;;;;;;;;28.60;46.50;;;;;;6301818;22;19898;-65
2021/11/16 14:38:01;;;;;;;;;;;28.50;46.50;;;;;;6302750;22;19902;-67
2021/11/16 14:40:28;;;;;;;;;;;28.60;46.90;;;;;;6302325;22;20044;-67
2021/11/16 14:42:55;;;;;;;;;;;28.50;47.50;;;;;;6303620;22;19910;-66